KALW

Walla Walla Regional Airport

Walla Walla, Washington, USA
METAR KALW 222053Z 00000KT 10SM CLR 14/M02 A3026 RMK AO2 SLP253 T01441017 58015
Observed Flight Rules
Apr-22 @ 20:53 UTC (52 minutes ago) Visual Flight Rules
Visibility Clouds
10 miles
  • Clear skies
Temperatures Readings
Current 14°C / 57°F
Dewpoint -2°C / 28°F
Humidity 33%
Altimeter 30.26" Hg
Pressure 1025.3 hPa
Elevation 363
METAR KALW 222053Z 00000KT 10SM CLR 14/M02 A3026 RMK AO2 SLP253 T01441017 58015
Observed Flight Rules
Apr-22 @ 20:53 UTC
(52 minutes ago)
VFR
Clouds
  • Clear skies
Temperature Dewpoint
14°C / 57°F -2°C / 28°F
Humidity Altimeter Pressure
33% 30.26" Hg 1025.3 hPa